Cacapava, Brazil
Current Conditions -  °F | °C
As of 12:00 PM on Monday 26 Jan 2015 (Local Time) from SBSJ Reporting Station
Broken Clouds Broken Clouds  
Wind Chill: 86°   Ceiling: 10000
Heat Index: 88°   Visibility: 6mi
Dew Point: 66°   Wind: 3mph
Humidity: 51%   Direction: 320°NW
Pressure: 30.06"   Gusts: NA
Location:  23.1°S, 45.71°W
Report Text: SBSJ 261400Z 32003KT 9999 FEW020 BKN100 30/19 Q1018
Loading
Personal Weather Stations






























Interactive Weather Map New forecast layout! Learn more

10-Day Weather Forecast

Advertisements
Track Severe Weather on mobile